Matutina, Brazil
Current Conditions -  °F | °C
As of 11:00 AM on Friday 24 Oct 2014 (Local Time) from SBUR Reporting Station
Broken Clouds Broken Clouds  
Wind Chill: 72°   Ceiling: 8000
Heat Index: 72°   Visibility: 4mi
Dew Point: 64°   Wind: 9mph
Humidity: 78%   Direction: 80°E
Pressure: 30.09"   Gusts: NA
Location:  19.22°S, 45.97°W
Report Text: SBUR 241300Z 08008KT 6000 SCT045 BKN080 22/18 Q1019
Loading
Personal Weather Stations






























Interactive Weather Map
Tropical Storm Tracking
New forecast layout! Learn more

10-Day Weather Forecast

Advertisements
Track Severe Weather on mobile